Airfield :
LOGIN :

Register | Disclaimer

   EN    FR    IT 

 










Legend :    VFR   Marginal VFR   IFR   Intensive IFR   Very Intensive IFR
Visi :
Ceiling :
>= 8 km
>= 3000ft
5 to 8 km
1000 to 3000 ft
1500m to 5 km
500 to 1000 ft
800 to 1500m
200 to 500 ft
< 800m
< 200 ft
Symbols :   Thunderstorms  Fog  Heavy snow  Heavy precipitations  Wind > 20 kt
SIGMETs :     Misc.  Thunderstorms  Icing  Turbulence  Mountain Waves  Volcanic Ashes







- Airport Elevation : 257 ft
- IATA code : MAN
- Download approach charts


EGCC - Manchester

CURRENT METAR :
  • 221020Z 23004KT 180V250 9999 -SHSN SCT007 BKN011CB 01/M00 Q1000 TEMPO 2000 SHSN SHGS BKN004

EXPIRED METARs :
  • 220950Z VRB02KT 9999 BKN012CB OVC048 01/M00 Q1001 TEMPO 2000 SHSN TSGS BKN004
  • 220920Z VRB02KT 9999 6000E -RASN FEW009CB BKN012 01/M00 Q1001 RESHRA RESN TEMPO 2000 SHSN TSGS BKN004
  • 220850Z VRB02KT 8000 3800NW SHRASN BKN012CB 01/M00 Q1001 RESHRA RESN TEMPO 2000 SHSN BKN004
  • 220820Z 29005KT 9999 6000E -RASN SCT008CB BKN011 01/M00 Q1001 RESHRA RESN RERA TEMPO 2000 SHSN BKN004
  • 220750Z 28004KT 220V320 2400 SHRASN BKN007 BKN012CB 01/M00 Q1001 RESHRA RESN TEMPO 6000 NSW SCT015

TAF AMD TAF EGCC
Valid from the 22 at 10:00 until the 23 at 12:00 UTC


221005Z 2210/2312 25006KT 9999 SCT018
TEMPO 2210/2217 4000 SHRASN SHGS BKN009 BKN020CB
PROB30
TEMPO 2210/2217 1200 SHSN BKN004
TEMPO 2217/2304 2000 SHSN SHGS BKN003 BKN015CB
PROB40
TEMPO 2217/2303 0500 +SHSN VV///
PROB30
TEMPO 2303/2309 BKN014
ATIS : +44 161 499 2324
No reported NOTAMs for that airfield.
1 SIGMET reported for the London FIR (EGTT) :
 
Severe turbulence
EGTT SIGMET 01 VALID 221030/221430 EGRR
EGTT LONDON FIR SEV TURB FCST WI N5220 W00530 - N5429 W00530 - N5214 W00410 - N5045 W00342 - N4947 W00604 - N5143 W00639 - N5220 W00530 FL160/400 MOV E 15KT NC=



MET'MAP, your aeronautical weather chart ! - Copyright ORBIFLY December 2007 - Disclaimer

ORBIFLY MET'MAP TEAM :

Programming & Development : Alexandra Zaïnal
Concept & Development : Baudouin d'Aumeries
Co-Development & Prog : Marc-Olivier Méhu
Technical & hardware support : Manuel Goepfert

Contact : metmap@orbifly.com




SOURCES & CREDITS :

   NOAA